Time;durP1;ratioP1;P1;durP2;ratioP2;P2;SDS_P1;SDS_P2;PMS_P1;PMS_P2;Temp;Humidity;BMP_temperature;BMP_pressure;BME280_temperature;BME280_humidity;BME280_pressure;Samples;Min_cycle;Max_cycle;Signal;HPM_P1;HPM_P2
2023/10/17 00:01:35;;;;;;;2.10;2.00;;;22.50;41.00;;;;;;4985363;28;20493;-63
2023/10/17 00:04:40;;;;;;;2.47;2.37;;;22.50;41.00;;;;;;4984137;28;20466;-68
2023/10/17 00:07:02;;;;;;;2.40;2.20;;;22.50;41.00;;;;;;4979695;28;20492;-66
2023/10/17 00:09:29;;;;;;;3.50;2.20;;;22.50;41.00;;;;;;4994507;28;20447;-62
2023/10/17 00:14:27;;;;;;;2.00;1.90;;;22.50;41.00;;;;;;4988905;28;20464;-62
2023/10/17 00:16:56;;;;;;;2.17;2.07;;;22.50;41.00;;;;;;4992549;28;20471;-68
2023/10/17 00:19:26;;;;;;;2.10;2.00;;;22.50;41.00;;;;;;4995688;28;20474;-63
2023/10/17 00:21:52;;;;;;;2.10;2.00;;;22.50;40.90;;;;;;4982534;28;20484;-63
2023/10/17 00:24:19;;;;;;;2.47;2.30;;;22.50;41.00;;;;;;4984595;28;20460;-65
2023/10/17 00:26:47;;;;;;;2.00;1.90;;;22.50;40.90;;;;;;4984032;28;20869;-66
2023/10/17 00:29:14;;;;;;;1.90;1.80;;;22.50;40.90;;;;;;4982200;28;20443;-66
2023/10/17 00:31:40;;;;;;;2.20;1.87;;;22.50;40.90;;;;;;4992290;28;20470;-64
2023/10/17 00:34:13;;;;;;;2.30;2.20;;;22.50;40.80;;;;;;4981172;28;20461;-62
2023/10/17 00:36:49;;;;;;;2.10;2.00;;;22.50;40.90;;;;;;4981960;28;20468;-62
2023/10/17 00:39:26;;;;;;;2.50;2.10;;;22.50;40.90;;;;;;4980446;28;20476;-67
2023/10/17 00:44:32;;;;;;;2.50;2.13;;;22.50;40.90;;;;;;4982782;28;20465;-65
2023/10/17 00:46:59;;;;;;;2.20;2.10;;;22.50;40.90;;;;;;4991194;28;20460;-68
2023/10/17 00:49:26;;;;;;;2.00;1.90;;;22.50;40.90;;;;;;4982126;28;20480;-64
2023/10/17 00:51:55;;;;;;;2.07;1.97;;;22.50;40.90;;;;;;4982531;28;20464;-64
2023/10/17 00:54:24;;;;;;;2.00;1.90;;;22.50;40.90;;;;;;4981057;28;20461;-66
2023/10/17 00:56:51;;;;;;;2.00;1.90;;;22.50;40.90;;;;;;4994201;28;22463;-61
2023/10/17 00:59:16;;;;;;;1.80;1.70;;;22.50;40.90;;;;;;4983680;28;20479;-64
2023/10/17 01:01:42;;;;;;;2.80;2.60;;;22.50;40.90;;;;;;4980642;28;20825;-62
2023/10/17 01:04:13;;;;;;;1.90;1.80;;;22.50;40.90;;;;;;4980102;28;20232;-66
2023/10/17 01:06:38;;;;;;;1.93;1.83;;;22.50;40.90;;;;;;4981210;28;20238;-65
2023/10/17 01:09:19;;;;;;;2.47;2.10;;;22.50;40.80;;;;;;4980322;28;20473;-63
2023/10/17 01:11:45;;;;;;;2.00;1.90;;;22.50;40.90;;;;;;5002269;28;20234;-65
2023/10/17 01:14:20;;;;;;;2.30;2.20;;;22.50;40.90;;;;;;4981741;28;20544;-65
2023/10/17 01:16:46;;;;;;;1.80;1.70;;;22.50;40.90;;;;;;5000037;28;20542;-66
2023/10/17 01:19:14;;;;;;;1.87;1.77;;;22.50;40.90;;;;;;4991640;28;20443;-62
2023/10/17 01:21:41;;;;;;;2.60;1.80;;;22.50;40.90;;;;;;5003424;28;20610;-62
2023/10/17 01:24:07;;;;;;;2.00;1.90;;;22.50;40.80;;;;;;4996325;28;20495;-63
2023/10/17 01:26:37;;;;;;;1.93;1.83;;;22.50;40.90;;;;;;4980408;28;20473;-66
2023/10/17 01:29:04;;;;;;;2.40;2.20;;;22.50;40.90;;;;;;4978179;28;20465;-63
2023/10/17 01:31:31;;;;;;;2.43;2.23;;;22.50;40.80;;;;;;4981225;28;20465;-62
2023/10/17 01:34:02;;;;;;;1.97;1.73;;;22.50;41.00;;;;;;4980111;28;20471;-62
2023/10/17 01:36:27;;;;;;;2.20;2.00;;;22.50;40.90;;;;;;4986998;28;20513;-63
2023/10/17 01:38:54;;;;;;;1.90;1.80;;;22.50;40.90;;;;;;4982513;28;20474;-65
2023/10/17 01:41:20;;;;;;;2.10;2.00;;;22.50;40.90;;;;;;4995921;28;20224;-61
2023/10/17 01:43:47;;;;;;;2.00;1.90;;;22.50;40.80;;;;;;4981805;28;20547;-62
2023/10/17 01:46:21;;;;;;;1.70;1.60;;;22.50;40.90;;;;;;4990661;28;20227;-61
2023/10/17 01:48:48;;;;;;;2.00;1.90;;;22.50;40.80;;;;;;4988586;28;20478;-64
2023/10/17 01:51:15;;;;;;;2.00;1.90;;;22.50;40.90;;;;;;4982062;28;20474;-68
2023/10/17 01:53:43;;;;;;;1.93;1.83;;;22.50;40.80;;;;;;4981384;28;20993;-64
2023/10/17 01:56:15;;;;;;;1.70;1.60;;;22.50;40.80;;;;;;4990215;28;20461;-65
2023/10/17 01:59:06;;;;;;;1.83;1.73;;;22.50;40.80;;;;;;4989167;28;20461;-61
2023/10/17 02:01:36;;;;;;;1.80;1.70;;;22.50;40.90;;;;;;5002221;28;23412;-66
2023/10/17 02:04:24;;;;;;;1.73;1.63;;;22.50;41.00;;;;;;4991155;28;21069;-67
2023/10/17 02:06:48;;;;;;;1.80;1.70;;;22.50;40.90;;;;;;4990927;28;20932;-62
2023/10/17 02:12:00;;;;;;;2.00;1.90;;;22.50;40.90;;;;;;4983018;28;20215;-65
2023/10/17 02:14:26;;;;;;;1.80;1.70;;;22.50;40.80;;;;;;4983130;28;20465;-68
2023/10/17 02:16:52;;;;;;;1.83;1.73;;;22.40;40.80;;;;;;4987963;28;20474;-61
2023/10/17 02:19:31;;;;;;;1.90;1.80;;;22.40;40.70;;;;;;4987236;28;20603;-63
2023/10/17 02:22:01;;;;;;;1.60;1.50;;;22.40;40.80;;;;;;4994822;28;20475;-62
2023/10/17 02:24:29;;;;;;;1.80;1.70;;;22.50;40.90;;;;;;4988478;28;20529;-63
2023/10/17 02:27:00;;;;;;;2.40;1.80;;;22.50;40.90;;;;;;4981865;28;20465;-63
2023/10/17 02:29:29;;;;;;;1.97;1.87;;;22.40;40.70;;;;;;4984628;28;20465;-62
2023/10/17 02:31:55;;;;;;;1.77;1.67;;;22.50;40.80;;;;;;4984772;28;20461;-62
2023/10/17 02:34:22;;;;;;;1.70;1.60;;;22.40;40.70;;;;;;4987250;28;20480;-65
2023/10/17 02:36:49;;;;;;;1.70;1.60;;;22.50;40.80;;;;;;4988620;28;21040;-67
2023/10/17 02:39:15;;;;;;;1.83;1.67;;;22.40;40.70;;;;;;4991415;28;20615;-61
2023/10/17 02:41:45;;;;;;;2.03;1.83;;;22.50;40.80;;;;;;4984501;28;20449;-62
2023/10/17 02:44:13;;;;;;;2.00;1.90;;;22.50;40.80;;;;;;4997580;28;20221;-61
2023/10/17 02:46:38;;;;;;;1.80;1.70;;;22.50;40.80;;;;;;4999148;28;20463;-62
2023/10/17 02:49:07;;;;;;;1.73;1.63;;;22.40;40.70;;;;;;4983182;28;20549;-65
2023/10/17 02:51:42;;;;;;;1.80;1.70;;;22.40;41.40;;;;;;4980446;28;20468;-63
2023/10/17 02:54:14;;;;;;;1.90;1.80;;;22.40;40.60;;;;;;4995509;28;20466;-61
2023/10/17 02:56:46;;;;;;;1.87;1.77;;;22.40;40.70;;;;;;4988903;28;20464;-63
2023/10/17 02:59:13;;;;;;;2.13;2.03;;;22.40;40.70;;;;;;4983089;28;20465;-62
2023/10/17 03:01:40;;;;;;;1.87;1.77;;;22.40;40.70;;;;;;4981756;28;20476;-62
2023/10/17 03:04:08;;;;;;;1.80;1.70;;;22.40;40.70;;;;;;4981083;28;20473;-63
2023/10/17 03:06:40;;;;;;;1.60;1.50;;;22.40;40.70;;;;;;4985331;28;20519;-65
2023/10/17 03:11:51;;;;;;;1.70;1.60;;;22.40;40.60;;;;;;4982617;28;20936;-66
2023/10/17 03:17:10;;;;;;;1.70;1.60;;;22.40;40.60;;;;;;4978697;28;20994;-66
2023/10/17 03:19:37;;;;;;;1.80;1.70;;;22.40;40.60;;;;;;4986954;28;20542;-66
2023/10/17 03:22:18;;;;;;;2.03;1.93;;;22.40;40.70;;;;;;4979366;28;20500;-64
2023/10/17 03:24:48;;;;;;;1.60;1.50;;;22.40;40.60;;;;;;4985360;28;21180;-65
2023/10/17 03:27:23;;;;;;;1.77;1.67;;;22.40;40.60;;;;;;4998601;28;20809;-67
2023/10/17 03:29:50;;;;;;;1.57;1.47;;;22.40;40.60;;;;;;4979761;28;20524;-63
2023/10/17 03:32:15;;;;;;;1.67;1.57;;;22.40;40.60;;;;;;4984002;28;20452;-62
2023/10/17 03:34:45;;;;;;;1.70;1.60;;;22.40;40.60;;;;;;4980891;28;20494;-67
2023/10/17 03:40:15;;;;;;;1.77;1.67;;;22.40;40.60;;;;;;4979059;28;20909;-62
2023/10/17 03:42:43;;;;;;;1.50;1.40;;;22.50;40.60;;;;;;4996209;28;20485;-63
2023/10/17 03:45:18;;;;;;;1.70;1.60;;;22.40;40.50;;;;;;4983281;28;20553;-62
2023/10/17 03:47:49;;;;;;;1.70;1.50;;;22.40;40.50;;;;;;4995402;28;21390;-63
2023/10/17 03:50:43;;;;;;;1.40;1.30;;;22.40;40.50;;;;;;4986805;28;20824;-63
2023/10/17 03:53:06;;;;;;;2.00;1.90;;;22.40;40.50;;;;;;4986162;28;20465;-61
2023/10/17 03:55:32;;;;;;;1.60;1.50;;;22.40;40.50;;;;;;4981067;28;20465;-61
2023/10/17 03:58:00;;;;;;;1.50;1.40;;;22.40;40.50;;;;;;4986630;28;20504;-66
2023/10/17 04:00:40;;;;;;;1.60;1.50;;;22.40;40.40;;;;;;4985982;28;20476;-62
2023/10/17 04:03:10;;;;;;;1.57;1.47;;;22.40;40.40;;;;;;4981173;28;20579;-63
2023/10/17 04:05:38;;;;;;;1.47;1.37;;;22.40;40.40;;;;;;4981110;28;20464;-64
2023/10/17 04:08:05;;;;;;;1.50;1.40;;;22.40;40.40;;;;;;4982094;28;20457;-67
2023/10/17 04:10:46;;;;;;;1.60;1.50;;;22.40;40.40;;;;;;4986213;28;20553;-63
2023/10/17 04:13:45;;;;;;;1.50;1.40;;;22.40;40.40;;;;;;4986111;28;20453;-63
2023/10/17 04:16:16;;;;;;;1.70;1.60;;;22.50;40.40;;;;;;4989057;28;20465;-65
2023/10/17 04:18:45;;;;;;;1.70;1.60;;;22.50;40.40;;;;;;4993002;28;20622;-66
2023/10/17 04:21:27;;;;;;;1.40;1.30;;;22.50;40.30;;;;;;4990031;28;20581;-63
2023/10/17 04:23:55;;;;;;;1.60;1.50;;;22.50;40.30;;;;;;4986202;28;20473;-61
2023/10/17 04:26:27;;;;;;;1.60;1.50;;;22.50;40.30;;;;;;4980990;28;20469;-67
2023/10/17 04:29:00;;;;;;;1.47;1.37;;;22.50;40.20;;;;;;4985957;28;20468;-63
2023/10/17 04:31:29;;;;;;;1.60;1.50;;;22.50;40.20;;;;;;4988101;28;20821;-63
2023/10/17 04:34:06;;;;;;;1.60;1.50;;;22.50;40.10;;;;;;4980484;28;20494;-61
2023/10/17 04:36:38;;;;;;;1.60;1.50;;;22.50;40.10;;;;;;4987628;28;20461;-62
2023/10/17 04:39:12;;;;;;;1.40;1.30;;;22.50;40.10;;;;;;4991736;28;20523;-63
2023/10/17 04:42:04;;;;;;;1.60;1.47;;;22.50;40.10;;;;;;4986620;28;20501;-62
2023/10/17 04:44:38;;;;;;;1.37;1.27;;;22.50;40.10;;;;;;4981026;28;20500;-61
2023/10/17 04:49:36;;;;;;;1.47;1.37;;;22.50;40.10;;;;;;4980625;28;20829;-63
2023/10/17 04:52:18;;;;;;;1.80;1.70;;;22.50;40.10;;;;;;4999633;28;20909;-66
2023/10/17 04:54:44;;;;;;;1.50;1.40;;;22.50;40.10;;;;;;4991738;28;21070;-62
2023/10/17 04:57:16;;;;;;;1.60;1.50;;;22.50;40.10;;;;;;4993738;28;20961;-63
2023/10/17 06:18:57;;;;;;;1.40;1.30;;;22.50;40.30;;;;;;4994572;28;20654;-67
2023/10/17 06:21:36;;;;;;;1.63;1.53;;;22.50;40.30;;;;;;4985729;28;20472;-61
2023/10/17 06:26:58;;;;;;;1.90;1.70;;;22.50;40.30;;;;;;5004111;28;20499;-71
2023/10/17 06:34:23;;;;;;;1.60;1.50;;;22.50;40.30;;;;;;4986683;28;20449;-60
2023/10/17 06:36:50;;;;;;;1.73;1.63;;;22.50;40.30;;;;;;4990765;28;20780;-62
2023/10/17 06:39:17;;;;;;;1.40;1.30;;;22.50;40.50;;;;;;4987194;28;20464;-62
2023/10/17 06:41:45;;;;;;;1.43;1.33;;;22.50;40.30;;;;;;4985470;28;20568;-62
2023/10/17 06:44:15;;;;;;;1.43;1.33;;;22.50;40.20;;;;;;4984122;28;21105;-65
2023/10/17 06:46:55;;;;;;;1.90;1.80;;;22.50;40.20;;;;;;4984176;28;20473;-65
2023/10/17 06:54:58;;;;;;;1.70;1.60;;;22.50;40.30;;;;;;4955624;28;20473;-65
2023/10/17 06:57:24;;;;;;;1.67;1.40;;;22.50;40.30;;;;;;4988811;28;20492;-67
2023/10/17 06:59:51;;;;;;;1.77;1.67;;;22.50;40.30;;;;;;4983691;28;20484;-65
2023/10/17 07:02:28;;;;;;;1.70;1.60;;;22.50;40.20;;;;;;4984527;28;20228;-66
2023/10/17 07:05:00;;;;;;;1.60;1.30;;;22.60;40.30;;;;;;5000934;28;20587;-63
2023/10/17 07:07:39;;;;;;;1.60;1.50;;;22.50;40.20;;;;;;5000397;28;20473;-61
2023/10/17 07:10:36;;;;;;;2.13;1.50;;;22.50;40.30;;;;;;4983325;28;20500;-68
2023/10/17 07:13:41;;;;;;;1.97;1.40;;;22.50;40.20;;;;;;4988585;28;20431;-61
2023/10/17 07:16:16;;;;;;;1.43;1.33;;;22.50;40.30;;;;;;4981324;28;20472;-72
2023/10/17 07:18:51;;;;;;;1.77;1.40;;;22.50;40.20;;;;;;4986184;28;20556;-61
2023/10/17 07:21:23;;;;;;;1.20;1.10;;;22.50;40.30;;;;;;4996536;28;21022;-61
2023/10/17 07:23:49;;;;;;;1.40;1.30;;;22.50;40.20;;;;;;4989810;28;22232;-69
2023/10/17 07:26:58;;;;;;;1.50;1.40;;;22.50;40.20;;;;;;4998148;28;21045;-67
2023/10/17 07:29:05;;;;;;;1.50;1.40;;;22.50;40.20;;;;;;4977121;28;20507;-62
2023/10/17 07:31:32;;;;;;;1.40;1.30;;;22.50;40.20;;;;;;4982067;28;20809;-65
2023/10/17 07:34:16;;;;;;;2.27;1.50;;;22.50;40.20;;;;;;4984496;28;20461;-65
2023/10/17 07:36:43;;;;;;;1.60;1.50;;;22.50;40.20;;;;;;4984197;28;20457;-68
2023/10/17 07:39:59;;;;;;;1.40;1.30;;;22.50;40.20;;;;;;4982270;28;20478;-62
2023/10/17 07:42:02;;;;;;;1.50;1.40;;;22.50;40.20;;;;;;4982277;28;22971;-65
2023/10/17 07:44:27;;;;;;;1.10;1.00;;;22.50;40.20;;;;;;4980368;28;20531;-62
2023/10/17 07:47:41;;;;;;;1.43;1.33;;;22.50;40.20;;;;;;4986672;28;20809;-61
2023/10/17 07:49:41;;;;;;;1.50;1.40;;;22.50;40.10;;;;;;4970539;28;20251;-63
2023/10/17 07:52:17;;;;;;;1.30;1.20;;;22.50;40.10;;;;;;4980201;28;21324;-66
2023/10/17 07:54:58;;;;;;;1.50;1.40;;;22.50;40.20;;;;;;4983076;28;20235;-67
2023/10/17 07:57:27;;;;;;;1.70;1.60;;;22.50;40.10;;;;;;4999575;28;20500;-69
2023/10/17 07:59:57;;;;;;;1.50;1.40;;;22.50;40.90;;;;;;4994488;28;20477;-63
2023/10/17 08:02:23;;;;;;;1.50;1.40;;;22.50;41.00;;;;;;4988660;28;20460;-66
2023/10/17 08:04:50;;;;;;;1.50;1.40;;;22.50;40.20;;;;;;4985409;28;20899;-63
2023/10/17 08:07:20;;;;;;;1.63;1.37;;;22.50;40.20;;;;;;4980505;28;20965;-65
2023/10/17 08:10:10;;;;;;;1.50;1.40;;;22.50;40.20;;;;;;4983752;28;20590;-66
2023/10/17 08:12:35;;;;;;;1.50;1.40;;;22.50;40.20;;;;;;4997094;28;20500;-69
2023/10/17 08:15:19;;;;;;;1.30;1.20;;;22.50;40.20;;;;;;4985764;28;20928;-65
2023/10/17 08:17:48;;;;;;;1.33;1.23;;;22.50;40.20;;;;;;5002702;28;20234;-67
2023/10/17 08:22:55;;;;;;;1.60;1.50;;;22.50;40.20;;;;;;4990995;28;20479;-64
2023/10/17 08:25:30;;;;;;;1.60;1.50;;;22.50;40.20;;;;;;4986447;28;21632;-68
2023/10/17 08:27:56;;;;;;;1.40;1.30;;;22.50;40.20;;;;;;4999015;28;20464;-65
2023/10/17 08:30:27;;;;;;;1.47;1.37;;;22.50;40.20;;;;;;4980767;28;20468;-64
2023/10/17 08:35:36;;;;;;;1.50;1.40;;;22.50;40.20;;;;;;4983024;28;20472;-62
2023/10/17 08:38:03;;;;;;;1.47;1.37;;;22.50;40.20;;;;;;4980602;28;20505;-67
2023/10/17 08:40:32;;;;;;;1.53;1.43;;;22.50;40.20;;;;;;4993805;28;20482;-71
2023/10/17 08:43:03;;;;;;;1.60;1.50;;;22.50;40.30;;;;;;4984768;28;20465;-64
2023/10/17 08:45:37;;;;;;;1.50;1.40;;;22.50;40.30;;;;;;4987584;28;20465;-67
2023/10/17 08:48:05;;;;;;;1.30;1.20;;;22.50;40.20;;;;;;4989818;28;21043;-62
2023/10/17 08:50:37;;;;;;;1.50;1.40;;;22.50;40.30;;;;;;4987384;28;20970;-64
2023/10/17 08:53:12;;;;;;;1.40;1.30;;;22.50;40.20;;;;;;4983911;28;20469;-69
2023/10/17 08:55:40;;;;;;;1.30;1.20;;;22.50;40.20;;;;;;4994171;28;20464;-63
2023/10/17 08:58:09;;;;;;;2.10;1.23;;;22.50;40.20;;;;;;4980272;28;20476;-65
2023/10/17 09:01:20;;;;;;;1.33;1.23;;;22.50;40.30;;;;;;4982595;28;20595;-68
2023/10/17 09:03:31;;;;;;;1.63;1.23;;;22.50;40.20;;;;;;4988042;28;20976;-70
2023/10/17 09:11:29;;;;;;;1.50;1.40;;;22.50;40.30;;;;;;4985965;28;21861;-70
2023/10/17 09:14:16;;;;;;;1.37;1.27;;;22.50;40.30;;;;;;4983483;28;20473;-68
2023/10/17 09:17:16;;;;;;;1.30;1.20;;;22.50;40.30;;;;;;4987549;28;20505;-64
2023/10/17 09:19:46;;;;;;;1.20;1.00;;;22.50;40.30;;;;;;4990767;28;21060;-62
2023/10/17 09:22:16;;;;;;;1.53;1.43;;;22.40;40.20;;;;;;4997188;28;20511;-61
2023/10/17 09:24:49;;;;;;;1.60;1.50;;;22.50;40.30;;;;;;4992027;28;20490;-64
2023/10/17 09:27:16;;;;;;;2.00;1.50;;;22.40;40.30;;;;;;4994298;28;20478;-66
2023/10/17 09:29:44;;;;;;;1.30;1.20;;;22.40;40.30;;;;;;4996534;28;21235;-68
2023/10/17 09:32:10;;;;;;;1.77;1.13;;;22.40;40.30;;;;;;4988387;28;20467;-64
2023/10/17 09:34:38;;;;;;;1.40;1.30;;;22.40;40.30;;;;;;4986559;28;20457;-64
2023/10/17 09:37:05;;;;;;;1.40;1.30;;;22.50;40.30;;;;;;4984421;28;20223;-69
2023/10/17 09:39:39;;;;;;;1.30;1.20;;;22.50;40.30;;;;;;4986755;28;20496;-62
2023/10/17 09:42:05;;;;;;;1.30;1.20;;;22.50;40.30;;;;;;4990026;28;20667;-66
2023/10/17 09:44:32;;;;;;;1.30;1.20;;;22.50;40.40;;;;;;5005569;28;20460;-63
2023/10/17 09:47:02;;;;;;;1.90;1.30;;;22.50;40.30;;;;;;4995262;28;20591;-66
2023/10/17 09:49:36;;;;;;;1.40;1.30;;;22.50;40.30;;;;;;4984313;28;20953;-65
2023/10/17 09:52:09;;;;;;;1.30;1.20;;;22.50;40.30;;;;;;4988277;28;20846;-65
2023/10/17 09:54:36;;;;;;;1.23;1.13;;;22.50;40.40;;;;;;4987591;28;20496;-61
2023/10/17 09:57:03;;;;;;;1.10;1.00;;;22.50;40.30;;;;;;4985964;28;20906;-65
2023/10/17 09:59:39;;;;;;;1.37;1.20;;;22.50;40.40;;;;;;5004394;28;20465;-69
2023/10/17 10:02:07;;;;;;;1.30;1.20;;;22.50;40.40;;;;;;4998075;28;20480;-64
2023/10/17 10:04:33;;;;;;;1.20;1.10;;;22.50;40.50;;;;;;4999653;28;20457;-67
2023/10/17 10:07:19;;;;;;;1.17;1.07;;;22.50;40.50;;;;;;4987931;28;20468;-63
2023/10/17 10:09:46;;;;;;;1.90;1.30;;;22.50;40.40;;;;;;4996970;28;20733;-63
2023/10/17 10:12:11;;;;;;;1.40;1.30;;;22.50;40.50;;;;;;4987134;28;20526;-66
2023/10/17 10:14:45;;;;;;;1.30;1.20;;;22.50;40.40;;;;;;4988341;28;20556;-70
2023/10/17 10:17:16;;;;;;;1.20;1.10;;;22.50;40.40;;;;;;4990390;28;20314;-62
2023/10/17 10:19:41;;;;;;;1.30;1.20;;;22.50;40.40;;;;;;4994760;28;20538;-67
2023/10/17 10:22:11;;;;;;;1.17;1.07;;;22.50;40.50;;;;;;4985254;28;20485;-69
2023/10/17 10:24:37;;;;;;;1.20;1.10;;;22.60;40.50;;;;;;4984552;28;21208;-68
2023/10/17 10:29:37;;;;;;;1.23;1.13;;;22.50;40.50;;;;;;4986600;28;20473;-65
2023/10/17 10:32:06;;;;;;;1.40;1.30;;;22.50;40.50;;;;;;4994253;28;20484;-62
2023/10/17 10:34:36;;;;;;;1.50;1.40;;;22.50;40.40;;;;;;4981451;28;20475;-70
2023/10/17 10:37:09;;;;;;;1.20;1.10;;;22.50;40.50;;;;;;4981050;28;20457;-63
2023/10/17 10:39:37;;;;;;;1.33;1.23;;;22.50;40.40;;;;;;4982400;28;20871;-66
2023/10/17 10:42:07;;;;;;;1.20;1.10;;;22.50;40.50;;;;;;4986619;28;20475;-64
2023/10/17 10:44:41;;;;;;;1.10;1.07;;;22.60;40.60;;;;;;4985510;28;20902;-62
2023/10/17 10:47:07;;;;;;;1.30;1.20;;;22.60;40.60;;;;;;4990777;28;21043;-67
2023/10/17 10:49:33;;;;;;;1.20;1.10;;;22.60;40.60;;;;;;4982484;28;20476;-66
2023/10/17 10:51:59;;;;;;;1.20;1.10;;;22.60;40.60;;;;;;4987875;28;20586;-65
2023/10/17 10:54:45;;;;;;;1.23;1.13;;;22.60;40.70;;;;;;4983193;28;20452;-67
2023/10/17 10:57:12;;;;;;;1.13;1.03;;;22.60;40.60;;;;;;4987738;28;20238;-67
2023/10/17 10:59:51;;;;;;;1.30;1.20;;;22.60;40.60;;;;;;4994693;28;20470;-64
2023/10/17 11:02:20;;;;;;;1.30;1.20;;;22.60;40.60;;;;;;4985711;28;20465;-67
2023/10/17 11:04:47;;;;;;;1.30;1.10;;;22.60;40.70;;;;;;4985398;28;20472;-62
2023/10/17 11:07:20;;;;;;;1.20;1.10;;;22.60;40.70;;;;;;4986509;28;20473;-64
2023/10/17 11:10:00;;;;;;;1.40;1.30;;;22.60;40.60;;;;;;5003586;28;20965;-68
2023/10/17 11:12:26;;;;;;;1.20;1.10;;;22.60;40.60;;;;;;4986546;28;20961;-64
2023/10/17 11:15:19;;;;;;;1.13;1.03;;;22.60;40.70;;;;;;4984102;28;20499;-67
2023/10/17 11:17:45;;;;;;;1.20;1.10;;;22.60;40.70;;;;;;4987040;28;20285;-66
2023/10/17 11:20:15;;;;;;;1.20;1.10;;;22.60;40.70;;;;;;4981426;28;21465;-69
2023/10/17 11:22:49;;;;;;;1.10;1.10;;;22.60;40.70;;;;;;4981241;28;20326;-68
2023/10/17 11:25:26;;;;;;;1.30;1.20;;;22.60;40.60;;;;;;4983141;28;21039;-65
2023/10/17 11:27:54;;;;;;;1.00;1.00;;;22.60;40.60;;;;;;4998612;28;20484;-64
2023/10/17 11:30:20;;;;;;;1.10;1.00;;;22.60;40.70;;;;;;4992433;28;20476;-65
2023/10/17 11:32:47;;;;;;;1.20;1.10;;;22.60;40.60;;;;;;4988255;28;20968;-64
2023/10/17 11:35:31;;;;;;;1.27;1.17;;;22.60;40.70;;;;;;4988247;28;20490;-59
2023/10/17 11:37:58;;;;;;;1.23;1.13;;;22.60;40.60;;;;;;4986459;28;20478;-59
2023/10/17 11:40:43;;;;;;;1.30;1.20;;;22.60;40.60;;;;;;4983306;28;20487;-61
2023/10/17 11:43:17;;;;;;;1.20;1.10;;;22.60;40.60;;;;;;4984294;28;20480;-68
2023/10/17 11:45:43;;;;;;;1.10;1.00;;;22.60;40.50;;;;;;4981040;28;20477;-59
2023/10/17 11:48:29;;;;;;;1.77;1.67;;;22.60;40.50;;;;;;4996499;28;20591;-68
2023/10/17 11:51:16;;;;;;;1.23;1.13;;;22.60;40.50;;;;;;5007379;28;20235;-62
2023/10/17 11:54:04;;;;;;;1.00;1.00;;;22.60;40.50;;;;;;4987772;28;20469;-67
2023/10/17 11:56:34;;;;;;;1.17;1.07;;;22.60;40.40;;;;;;4985993;28;21110;-60
2023/10/17 11:59:01;;;;;;;1.30;1.20;;;22.60;40.50;;;;;;4983462;28;20476;-62
2023/10/17 12:01:28;;;;;;;1.20;1.10;;;22.60;40.50;;;;;;5004023;28;20904;-61
2023/10/17 12:03:56;;;;;;;1.70;1.03;;;22.60;40.40;;;;;;4985568;28;20566;-62
2023/10/17 12:06:26;;;;;;;1.10;1.10;;;22.60;40.30;;;;;;4984407;28;20473;-62
2023/10/17 12:08:53;;;;;;;1.13;1.03;;;22.60;40.30;;;;;;4986426;28;20465;-58
2023/10/17 12:11:19;;;;;;;1.27;1.17;;;22.60;40.30;;;;;;4978602;28;20474;-66
2023/10/17 12:13:44;;;;;;;1.10;1.00;;;22.60;40.40;;;;;;4979345;28;21053;-59
2023/10/17 12:16:11;;;;;;;1.03;0.93;;;22.60;40.30;;;;;;4979169;28;20334;-63
2023/10/17 12:18:37;;;;;;;1.30;1.20;;;22.60;40.30;;;;;;4986366;28;20223;-63
2023/10/17 12:21:04;;;;;;;1.40;1.30;;;22.60;40.30;;;;;;4984575;28;20484;-64
2023/10/17 12:23:30;;;;;;;1.00;0.90;;;22.60;40.30;;;;;;4983451;28;20507;-62
2023/10/17 12:26:01;;;;;;;1.00;1.00;;;22.60;40.30;;;;;;4987683;28;20460;-61
2023/10/17 12:28:27;;;;;;;1.20;1.10;;;22.60;40.30;;;;;;4989080;28;20461;-68
2023/10/17 12:30:54;;;;;;;1.47;1.00;;;22.60;40.30;;;;;;4997257;28;20455;-60
2023/10/17 12:33:23;;;;;;;1.20;1.10;;;22.60;40.30;;;;;;4993798;28;20487;-63
2023/10/17 12:35:50;;;;;;;1.00;1.00;;;22.60;40.30;;;;;;4990114;28;21276;-61
2023/10/17 12:38:24;;;;;;;1.17;1.07;;;22.60;40.30;;;;;;4990686;28;20846;-60
2023/10/17 12:40:50;;;;;;;1.10;1.00;;;22.60;40.30;;;;;;4990088;28;21367;-64
2023/10/17 12:43:16;;;;;;;1.13;1.10;;;22.60;40.30;;;;;;4994432;28;20448;-66
2023/10/17 12:45:42;;;;;;;1.20;1.10;;;22.60;40.30;;;;;;4989516;28;20226;-60
2023/10/17 12:48:11;;;;;;;1.30;1.20;;;22.60;40.30;;;;;;4986917;28;20227;-59
2023/10/17 12:50:43;;;;;;;1.30;1.20;;;22.60;40.30;;;;;;4993645;28;20306;-61
2023/10/17 12:53:10;;;;;;;1.30;1.10;;;22.60;40.30;;;;;;4986733;28;20465;-66
2023/10/17 12:55:36;;;;;;;1.10;1.00;;;22.60;40.30;;;;;;5010208;28;20464;-61
2023/10/17 12:58:02;;;;;;;1.23;1.13;;;22.60;40.30;;;;;;4980284;28;21390;-63
2023/10/17 13:00:28;;;;;;;1.10;1.00;;;22.60;40.30;;;;;;4982484;28;20974;-64
2023/10/17 13:02:55;;;;;;;1.20;1.10;;;22.60;40.30;;;;;;4983648;28;20442;-65
2023/10/17 13:05:21;;;;;;;1.17;0.93;;;22.60;40.30;;;;;;4982155;28;20464;-63
2023/10/17 13:07:47;;;;;;;1.10;1.00;;;22.60;40.20;;;;;;4984219;28;20473;-63
2023/10/17 13:10:13;;;;;;;1.20;1.10;;;22.60;40.30;;;;;;4999046;28;20226;-62
2023/10/17 13:12:42;;;;;;;1.20;1.10;;;22.60;40.30;;;;;;4996181;28;20758;-65
2023/10/17 13:15:14;;;;;;;0.90;0.90;;;22.60;40.30;;;;;;4991197;28;20924;-59
2023/10/17 13:17:40;;;;;;;1.00;1.00;;;22.60;40.30;;;;;;4990613;28;20481;-62
2023/10/17 13:20:10;;;;;;;0.87;0.83;;;22.60;40.30;;;;;;4995482;28;20829;-63
2023/10/17 13:22:41;;;;;;;1.10;1.00;;;22.60;40.40;;;;;;4988908;28;20227;-65
2023/10/17 13:25:10;;;;;;;1.07;1.00;;;22.60;40.40;;;;;;4996464;28;20972;-64
2023/10/17 13:27:37;;;;;;;0.90;0.90;;;22.70;40.50;;;;;;4986489;28;20475;-65
2023/10/17 13:30:06;;;;;;;1.10;1.00;;;22.60;40.40;;;;;;4980740;28;20836;-61
2023/10/17 13:32:33;;;;;;;1.13;1.03;;;22.60;40.40;;;;;;4980327;28;20721;-60
2023/10/17 13:34:59;;;;;;;1.23;1.13;;;22.60;40.30;;;;;;4985433;28;20603;-61
2023/10/17 13:37:27;;;;;;;0.80;0.80;;;22.60;40.40;;;;;;4988610;28;20473;-61
2023/10/17 13:39:55;;;;;;;1.50;1.40;;;22.60;40.40;;;;;;4989744;28;20460;-64
2023/10/17 13:42:21;;;;;;;0.90;0.90;;;22.60;40.40;;;;;;4994654;28;20922;-63
2023/10/17 13:44:47;;;;;;;0.83;0.83;;;22.60;40.50;;;;;;4988528;28;20462;-59
2023/10/17 13:47:13;;;;;;;1.13;1.03;;;22.70;40.50;;;;;;4995695;28;20810;-64
2023/10/17 13:49:39;;;;;;;0.90;0.90;;;22.60;40.50;;;;;;4984483;28;20232;-61
2023/10/17 13:52:05;;;;;;;1.63;1.00;;;22.70;40.50;;;;;;4988762;28;20467;-64
2023/10/17 13:54:37;;;;;;;1.10;1.00;;;22.60;40.50;;;;;;4992452;28;20732;-66
2023/10/17 13:57:12;;;;;;;1.00;1.00;;;22.70;40.50;;;;;;4988821;28;20617;-65
2023/10/17 13:59:46;;;;;;;0.80;0.80;;;22.60;40.50;;;;;;4985154;28;20497;-61
2023/10/17 14:02:15;;;;;;;1.10;1.00;;;22.60;40.60;;;;;;4998938;28;20537;-62
2023/10/17 14:04:40;;;;;;;1.20;1.10;;;22.70;40.50;;;;;;4986917;28;21066;-63
2023/10/17 14:07:06;;;;;;;1.00;1.00;;;22.60;40.50;;;;;;4995668;28;20531;-59
2023/10/17 14:09:32;;;;;;;1.10;1.00;;;22.60;40.50;;;;;;5002935;28;20256;-64
2023/10/17 14:11:59;;;;;;;0.90;0.90;;;22.60;40.50;;;;;;4987739;28;20305;-61
2023/10/17 14:14:25;;;;;;;1.10;1.00;;;22.60;40.50;;;;;;4984202;28;20346;-60
2023/10/17 14:16:51;;;;;;;1.20;1.10;;;22.60;41.30;;;;;;4999810;28;20466;-60
2023/10/17 14:27:21;;;;;;;0.90;0.90;;;22.60;40.60;;;;;;4986174;28;20568;-63
2023/10/17 14:29:47;;;;;;;1.10;1.00;;;22.60;40.60;;;;;;4984301;28;20463;-66
2023/10/17 14:32:20;;;;;;;1.10;1.00;;;22.60;40.60;;;;;;4984175;28;20472;-58
2023/10/17 14:34:47;;;;;;;1.10;1.00;;;22.60;40.60;;;;;;4984560;28;20976;-66
2023/10/17 14:37:14;;;;;;;1.10;1.00;;;22.60;40.60;;;;;;4983797;28;20476;-59
2023/10/17 14:39:40;;;;;;;1.07;0.97;;;22.60;40.60;;;;;;4987314;28;20472;-63
2023/10/17 14:42:06;;;;;;;0.90;0.90;;;22.60;40.60;;;;;;4996555;28;20485;-64
2023/10/17 14:44:32;;;;;;;1.00;0.90;;;22.60;40.70;;;;;;5002608;28;20487;-63
2023/10/17 14:46:58;;;;;;;1.20;1.10;;;22.60;40.80;;;;;;4985464;28;20481;-64
2023/10/17 14:49:27;;;;;;;1.00;1.00;;;22.60;40.70;;;;;;4973731;28;20460;-65
2023/10/17 14:51:57;;;;;;;1.20;1.10;;;22.60;40.70;;;;;;5001245;28;20298;-66
2023/10/17 14:54:23;;;;;;;1.00;1.00;;;22.60;40.80;;;;;;4986629;28;20475;-60
2023/10/17 14:56:53;;;;;;;1.00;0.90;;;22.60;40.80;;;;;;5007218;28;20448;-62
2023/10/17 14:59:18;;;;;;;0.90;0.90;;;22.60;40.80;;;;;;4998811;28;20602;-59
2023/10/17 15:01:45;;;;;;;1.07;0.97;;;22.60;40.70;;;;;;4989896;28;20519;-62
2023/10/17 15:04:10;;;;;;;1.20;1.10;;;22.60;40.70;;;;;;5012948;28;20686;-59
2023/10/17 15:06:37;;;;;;;1.10;0.90;;;22.60;40.80;;;;;;4993342;28;20460;-63
2023/10/17 15:09:06;;;;;;;0.90;0.90;;;22.60;40.80;;;;;;5000348;28;20251;-63
2023/10/17 15:11:32;;;;;;;0.90;0.90;;;22.60;40.80;;;;;;4996767;28;20486;-62
2023/10/17 15:14:01;;;;;;;1.57;0.93;;;22.60;40.80;;;;;;5004764;28;20457;-61
2023/10/17 15:16:30;;;;;;;0.80;0.80;;;22.60;40.80;;;;;;4991547;28;20464;-63
2023/10/17 15:18:56;;;;;;;0.80;0.80;;;22.60;40.80;;;;;;5002086;28;20821;-60